TimePST,TemperatureF,Dew PointF,Humidity,Sea Level PressureIn,VisibilityMPH,Wind Direction,Wind SpeedMPH,Gust SpeedMPH,PrecipitationIn,Events,Conditions,WindDirDegrees,DateUTC
12:36 AM,44.6,44.6,100,30.37,10.0,South,3.5,-,N/A,,Light Drizzle,180,2013-12-15 08:36:00
12:52 AM,44.6,44.6,100,30.37,10.0,South,3.5,-,N/A,,Overcast,190,2013-12-15 08:52:00
12:58 AM,45.0,44.8,99,30.39,10.0,SSW,4.6,-,0.00,,Overcast,210,2013-12-15 08:58:00
1:28 AM,44.6,44.6,100,30.36,10.0,SSE,4.6,-,N/A,,Overcast,160,2013-12-15 09:28:00
1:42 AM,44.6,44.6,100,30.37,9.0,South,4.6,-,N/A,,Light Drizzle,180,2013-12-15 09:42:00
1:47 AM,44.6,44.6,100,30.36,9.0,South,4.6,-,N/A,,Light Drizzle,170,2013-12-15 09:47:00
1:52 AM,44.6,44.6,100,30.36,10.0,South,4.6,-,N/A,,Overcast,170,2013-12-15 09:52:00
1:58 AM,44.4,44.4,100,30.38,9.0,South,4.6,-,0.00,,Overcast,170,2013-12-15 09:58:00
2:06 AM,44.6,44.6,100,30.36,8.0,SSE,4.6,-,N/A,Rain,Light Rain,150,2013-12-15 10:06:00
2:09 AM,44.6,44.6,100,30.36,7.0,SSE,4.6,-,N/A,,Light Drizzle,150,2013-12-15 10:09:00
2:17 AM,44.6,44.6,100,30.37,9.0,South,4.6,-,N/A,,Overcast,170,2013-12-15 10:17:00
2:22 AM,44.6,44.6,100,30.37,10.0,South,4.6,-,N/A,,Overcast,180,2013-12-15 10:22:00
2:46 AM,44.6,44.6,100,30.38,10.0,South,3.5,-,N/A,,Light Drizzle,190,2013-12-15 10:46:00
2:58 AM,44.6,44.6,100,30.40,10.0,South,4.6,-,0.01,,Light Drizzle,180,2013-12-15 10:58:00
3:08 AM,44.6,44.6,100,30.38,9.0,South,3.5,-,N/A,,Light Drizzle,180,2013-12-15 11:08:00
3:12 AM,44.6,44.6,100,30.37,10.0,South,4.6,-,N/A,,Overcast,170,2013-12-15 11:12:00
3:22 AM,44.6,44.6,100,30.38,9.0,SSE,3.5,-,N/A,Rain,Light Rain,160,2013-12-15 11:22:00
3:25 AM,44.6,44.6,100,30.38,7.0,SSE,3.5,-,N/A,Rain,Light Rain,160,2013-12-15 11:25:00
3:41 AM,44.6,44.6,100,30.38,10.0,South,2.3,-,N/A,,Overcast,170,2013-12-15 11:41:00
3:46 AM,44.6,44.6,100,30.38,9.0,South,3.5,-,N/A,,Overcast,180,2013-12-15 11:46:00
3:47 AM,44.6,44.6,100,30.38,9.0,South,3.5,-,N/A,,Light Drizzle,180,2013-12-15 11:47:00
3:58 AM,45.3,45.3,100,30.40,5.0,South,2.3,-,0.01,,Light Drizzle,170,2013-12-15 11:58:00
3:59 AM,44.6,44.6,100,30.38,6.0,SSE,2.3,-,N/A,,Light Drizzle,160,2013-12-15 11:59:00
4:31 AM,44.6,44.6,100,30.37,5.0,SE,2.3,-,N/A,,Overcast,140,2013-12-15 12:31:00
4:45 AM,44.6,44.6,100,30.37,9.0,SSE,2.3,-,N/A,Rain,Light Rain,160,2013-12-15 12:45:00
4:58 AM,45.1,45.1,100,30.39,8.0,SSE,2.3,-,0.01,,Light Drizzle,160,2013-12-15 12:58:00
4:59 AM,44.6,44.6,100,30.36,9.0,SSE,2.3,-,N/A,,Overcast,160,2013-12-15 12:59:00
5:05 AM,44.6,44.6,100,30.36,9.0,SSE,2.3,-,N/A,Rain,Light Rain,160,2013-12-15 13:05:00
5:06 AM,44.6,44.6,100,30.36,8.0,South,2.3,-,N/A,,Light Drizzle,170,2013-12-15 13:06:00
5:29 AM,44.6,44.6,100,30.35,5.0,SSE,4.6,-,N/A,,Overcast,160,2013-12-15 13:29:00
5:50 AM,44.6,44.6,100,30.34,10.0,South,9.2,-,N/A,,Overcast,170,2013-12-15 13:50:00
5:55 AM,44.6,44.6,100,30.34,10.0,South,8.1,-,N/A,,Overcast,170,2013-12-15 13:55:00
5:58 AM,44.6,44.6,100,30.36,10.0,South,8.1,-,0.01,,Overcast,180,2013-12-15 13:58:00
6:13 AM,44.6,44.6,100,30.35,10.0,SW,5.8,-,N/A,,Overcast,220,2013-12-15 14:13:00
6:58 AM,45.0,45.0,100,30.37,10.0,South,3.5,-,N/A,,Overcast,180,2013-12-15 14:58:00
7:03 AM,44.6,44.6,100,30.36,10.0,SSW,4.6,-,N/A,,Overcast,200,2013-12-15 15:03:00
7:18 AM,44.6,44.6,100,30.35,10.0,South,8.1,-,N/A,,Overcast,190,2013-12-15 15:18:00
7:23 AM,44.6,44.6,100,30.35,10.0,South,8.1,-,N/A,,Overcast,190,2013-12-15 15:23:00
7:58 AM,45.7,45.7,100,30.37,10.0,South,10.4,-,N/A,,Overcast,180,2013-12-15 15:58:00
8:58 AM,47.7,47.7,100,30.40,10.0,SSW,12.7,-,N/A,,Overcast,210,2013-12-15 16:58:00
9:08 AM,48.2,48.2,100,30.39,10.0,SSW,11.5,-,N/A,,Overcast,200,2013-12-15 17:08:00
9:13 AM,48.2,48.2,100,30.38,10.0,SSW,10.4,-,N/A,,Overcast,210,2013-12-15 17:13:00
9:18 AM,48.2,48.2,100,30.38,10.0,SSW,10.4,-,N/A,,Overcast,200,2013-12-15 17:18:00
9:38 AM,48.2,48.2,100,30.38,10.0,SSW,10.4,-,N/A,,Overcast,200,2013-12-15 17:38:00
9:58 AM,47.8,47.7,99,30.40,10.0,SSW,11.5,-,N/A,,Overcast,200,2013-12-15 17:58:00
10:58 AM,50.2,49.8,99,30.41,10.0,SSW,10.4,-,N/A,,Partly Cloudy,210,2013-12-15 18:58:00
11:58 AM,52.0,49.8,92,30.39,10.0,SSW,16.1,20.7,N/A,,Overcast,200,2013-12-15 19:58:00
12:28 PM,53.6,50.0,88,30.37,10.0,SSW,15.0,-,N/A,,Mostly Cloudy,200,2013-12-15 20:28:00
12:58 PM,52.5,49.5,89,30.40,10.0,SSW,12.7,-,N/A,,Overcast,200,2013-12-15 20:58:00
1:48 PM,51.8,48.2,88,30.37,10.0,SSW,13.8,-,N/A,,Scattered Clouds,200,2013-12-15 21:48:00
1:53 PM,51.8,48.2,88,30.37,10.0,SSW,11.5,-,N/A,,Mostly Cloudy,200,2013-12-15 21:53:00
1:58 PM,51.8,48.2,88,30.40,10.0,SSW,10.4,-,N/A,,Mostly Cloudy,210,2013-12-15 21:58:00
2:33 PM,51.8,48.2,88,30.38,10.0,SW,10.4,-,N/A,,Overcast,220,2013-12-15 22:33:00
2:58 PM,52.0,48.7,89,30.40,10.0,SSW,8.1,-,N/A,,Overcast,200,2013-12-15 22:58:00
3:23 PM,51.8,48.2,88,30.38,10.0,SSW,6.9,-,N/A,,Overcast,210,2013-12-15 23:23:00
3:43 PM,51.8,48.2,88,30.39,10.0,SSW,8.1,-,N/A,,Overcast,210,2013-12-15 23:43:00
3:53 PM,51.8,48.2,88,30.39,10.0,SW,10.4,-,N/A,,Mostly Cloudy,220,2013-12-15 23:53:00
3:58 PM,51.1,48.7,92,30.41,10.0,SW,10.4,-,N/A,,Overcast,220,2013-12-15 23:58:00
4:03 PM,51.8,48.2,88,30.39,10.0,SW,10.4,-,N/A,,Overcast,220,2013-12-16 00:03:00
4:08 PM,51.8,48.2,88,30.39,10.0,SW,10.4,-,N/A,,Overcast,220,2013-12-16 00:08:00
4:28 PM,50.0,48.2,94,30.39,10.0,SW,4.6,-,N/A,,Overcast,220,2013-12-16 00:28:00
4:53 PM,50.0,48.2,94,30.40,10.0,SSW,4.6,-,N/A,,Overcast,210,2013-12-16 00:53:00
4:58 PM,50.2,48.9,95,30.42,10.0,SSW,4.6,-,N/A,,Overcast,200,2013-12-16 00:58:00
5:43 PM,50.0,48.2,94,30.40,10.0,SW,2.3,-,N/A,,Light Drizzle,230,2013-12-16 01:43:00
5:52 PM,48.2,48.2,100,30.40,10.0,WSW,4.6,-,N/A,,Overcast,240,2013-12-16 01:52:00
5:58 PM,49.1,48.9,99,30.42,10.0,SW,3.5,-,0.00,,Overcast,220,2013-12-16 01:58:00
6:58 PM,47.7,47.5,99,30.42,10.0,South,5.8,-,N/A,,Mostly Cloudy,180,2013-12-16 02:58:00
7:03 PM,46.4,46.4,100,30.40,10.0,South,5.8,-,N/A,,Scattered Clouds,190,2013-12-16 03:03:00
7:43 PM,44.6,44.6,100,30.41,10.0,South,4.6,-,N/A,,Mostly Cloudy,190,2013-12-16 03:43:00
7:58 PM,44.4,44.4,100,30.44,10.0,Calm,Calm,-,N/A,,Mostly Cloudy,0,2013-12-16 03:58:00
8:23 PM,46.4,46.4,100,30.42,10.0,South,4.6,-,N/A,,Overcast,170,2013-12-16 04:23:00
8:48 PM,46.4,46.4,100,30.43,10.0,South,4.6,-,N/A,,Overcast,190,2013-12-16 04:48:00
8:58 PM,47.3,46.9,99,30.45,10.0,SSW,2.3,-,N/A,,Overcast,200,2013-12-16 04:58:00
9:13 PM,46.4,46.4,100,30.44,10.0,Calm,Calm,-,N/A,,Overcast,0,2013-12-16 05:13:00
9:18 PM,46.4,46.4,100,30.44,10.0,Calm,Calm,-,N/A,,Overcast,0,2013-12-16 05:18:00
9:43 PM,46.4,46.4,100,30.44,10.0,SW,3.5,-,N/A,,Overcast,220,2013-12-16 05:43:00
9:58 PM,46.0,46.0,100,30.46,10.0,SW,2.3,-,N/A,,Overcast,220,2013-12-16 05:58:00
10:28 PM,44.6,44.6,100,30.45,2.5,SW,2.3,-,N/A,,Overcast,230,2013-12-16 06:28:00
10:33 PM,44.6,44.6,100,30.45,5.0,SW,2.3,-,N/A,,Overcast,230,2013-12-16 06:33:00
10:38 PM,44.6,44.6,100,30.46,10.0,SW,2.3,-,N/A,,Overcast,220,2013-12-16 06:38:00
10:43 PM,44.6,44.6,100,30.46,10.0,WSW,2.3,-,N/A,,Overcast,240,2013-12-16 06:43:00
10:53 PM,44.6,44.6,100,30.46,10.0,Variable,1.2,-,N/A,,Overcast,0,2013-12-16 06:53:00
10:55 PM,44.6,44.6,100,30.46,10.0,Variable,1.2,-,N/A,,Overcast,0,2013-12-16 06:55:00
10:58 PM,44.6,44.6,100,30.48,10.0,West,2.3,-,N/A,,Overcast,260,2013-12-16 06:58:00
11:08 PM,46.4,46.4,100,30.46,10.0,SW,3.5,-,N/A,,Overcast,230,2013-12-16 07:08:00
11:58 PM,45.5,45.5,100,30.48,10.0,SW,4.6,-,N/A,,Overcast,220,2013-12-16 07:58:00